Time;durP1;ratioP1;P1;durP2;ratioP2;P2;SDS_P1;SDS_P2;PMS_P1;PMS_P2;Temp;Humidity;BMP_temperature;BMP_pressure;BME280_temperature;BME280_humidity;BME280_pressure;Samples;Min_cycle;Max_cycle;Signal;HPM_P1;HPM_P2
2024/01/24 06:01:55;;;;;;;;;;;;;;;;;;5310116;23;19933;-49
2024/01/24 06:04:21;;;;;;;;;;;;;;;;;;4991817;28;19914;-45
2024/01/24 06:06:47;;;;;;;;;;;;;;;;;;4992151;28;19917;-47
2024/01/24 06:09:13;;;;;;;;;;;;;;;;;;4991934;28;19916;-44
2024/01/24 06:11:39;;;;;;;;;;;;;;;;;;4991451;28;19969;-43
2024/01/24 06:14:05;;;;;;;;;;;;;;;;;;4991666;28;19921;-42
2024/01/24 06:16:31;;;;;;;;;;;;;;;;;;4991559;28;20060;-44
2024/01/24 06:18:57;;;;;;;;;;;;;;;;;;4991518;28;20034;-42
2024/01/24 06:21:23;;;;;;;;;;;;;;;;;;4991975;28;20427;-46
2024/01/24 06:23:48;;;;;;;;;;;;;;;;;;4991778;28;19963;-48
2024/01/24 06:26:14;;;;;;;;;;;;;;;;;;4991512;28;19910;-45
2024/01/24 06:28:40;;;;;;;;;;;;;;;;;;4991123;28;19916;-43
2024/01/24 06:31:06;;;;;;;;;;;;;;;;;;4991369;28;19913;-43
2024/01/24 06:33:32;;;;;;;;;;;;;;;;;;4991222;28;19996;-43
2024/01/24 06:35:58;;;;;;;;;;;;;;;;;;4991213;28;20300;-46
2024/01/24 06:38:24;;;;;;;;;;;;;;;;;;4990848;28;19969;-47
2024/01/24 06:40:50;;;;;;;;;;;;;;;;;;4991941;28;20292;-45
2024/01/24 06:43:18;;;;;;;;;;;;;;;;;;4990929;28;20013;-45
2024/01/24 06:45:44;;;;;;;;;;;;;;;;;;4991040;28;19920;-47
2024/01/24 06:48:10;;;;;;;;;;;;;;;;;;4990966;28;19910;-47
2024/01/24 06:50:36;;;;;;;;;;;;;;;;;;4990896;28;20370;-47
2024/01/24 06:53:02;;;;;;;;;;;;;;;;;;4989063;28;19920;-47
2024/01/24 06:55:28;;;;;;;;;;;;;;;;;;4991546;28;19910;-48
2024/01/24 06:57:54;;;;;;;;;;;;;;;;;;4991519;28;20101;-44
2024/01/24 07:00:21;;;;;;;;;;;;;;;;;;4992251;28;19910;-45
2024/01/24 07:02:48;;;;;;;;;;;;;;;;;;4991735;28;19953;-46
2024/01/24 07:05:14;;;;;;;;;;;;;;;;;;4992263;28;19914;-47
2024/01/24 07:07:40;;;;;;;;;;;;;;;;;;4991463;28;19910;-46
2024/01/24 07:10:10;;;;;;;;;;;;;;;;;;4991678;28;19917;-46
2024/01/24 07:12:38;;;;;;;;;;;;;;;;;;4991147;28;20057;-46
2024/01/24 07:15:04;;;;;;;;;;;;;;;;;;4991184;28;19914;-42
2024/01/24 07:17:30;;;;;;;;;;;;;;;;;;4989769;28;19917;-43
2024/01/24 07:19:56;;;;;;;;;;;;;;;;;;4989843;28;19910;-44
2024/01/24 07:22:22;;;;;;;;;;;;;;;;;;4991590;28;19914;-46
2024/01/24 07:24:48;;;;;;;;;;;;;;;;;;4982950;28;19922;-42
2024/01/24 07:27:13;;;;;;;;;;;;;;;;;;4974189;28;19918;-42
2024/01/24 07:29:39;;;;;;;;;;;;;;;;;;4991316;28;19910;-46
2024/01/24 07:32:05;;;;;;;;;;;;;;;;;;4991567;28;19914;-42
2024/01/24 07:34:31;;;;;;;;;;;;;;;;;;4991554;28;20408;-43
2024/01/24 07:36:57;;;;;;;;;;;;;;;;;;4990363;28;19920;-46
2024/01/24 07:39:23;;;;;;;;;;;;;;;;;;4991356;28;19910;-46
2024/01/24 07:41:49;;;;;;;;;;;;;;;;;;4990596;28;20401;-47
2024/01/24 07:44:15;;;;;;;;;;;;;;;;;;4985565;28;20012;-46
2024/01/24 07:46:41;;;;;;;;;;;;;;;;;;4990756;28;20343;-45
2024/01/24 07:49:08;;;;;;;;;;;;;;;;;;4988764;28;19925;-45
2024/01/24 07:51:34;;;;;;;;;;;;;;;;;;4990069;28;19917;-44
2024/01/24 07:54:00;;;;;;;;;;;;;;;;;;4989997;28;19956;-47
2024/01/24 07:56:26;;;;;;;;;;;;;;;;;;4989810;28;19917;-47
2024/01/24 07:58:52;;;;;;;;;;;;;;;;;;4982261;28;19929;-45
2024/01/24 08:01:18;;;;;;;;;;;;;;;;;;4987415;28;20084;-46
2024/01/24 08:03:44;;;;;;;;;;;;;;;;;;4990105;28;19917;-45
2024/01/24 08:06:09;;;;;;;;;;;;;;;;;;4981828;28;19914;-48
2024/01/24 08:08:36;;;;;;;;;;;;;;;;;;4991302;28;19910;-47
2024/01/24 08:11:01;;;;;;;;;;;;;;;;;;4994228;28;19921;-46
2024/01/24 08:13:27;;;;;;;;;;;;;;;;;;4994975;28;19914;-47
2024/01/24 08:15:53;;;;;;;;;;;;;;;;;;4994302;28;20009;-47
2024/01/24 08:18:19;;;;;;;;;;;;;;;;;;4994658;28;19992;-45
2024/01/24 08:20:45;;;;;;;;;;;;;;;;;;4992837;28;19914;-46
2024/01/24 08:23:11;;;;;;;;;;;;;;;;;;4993861;28;20384;-45
2024/01/24 08:25:37;;;;;;;;;;;;;;;;;;4993020;28;19914;-48
2024/01/24 08:28:03;;;;;;;;;;;;;;;;;;4994610;28;19910;-45
2024/01/24 08:30:30;;;;;;;;;;;;;;;;;;4992302;28;19957;-45
2024/01/24 08:32:56;;;;;;;;;;;;;;;;;;4994838;28;19910;-45
2024/01/24 08:35:22;;;;;;;;;;;;;;;;;;4994231;28;20000;-47
2024/01/24 08:37:47;;;;;;;;;;;;;;;;;;4994605;28;20400;-45
2024/01/24 08:40:15;;;;;;;;;;;;;;;;;;4992937;28;19968;-46
2024/01/24 08:42:42;;;;;;;;;;;;;;;;;;4994713;28;19956;-44
2024/01/24 08:45:09;;;;;;;;;;;;;;;;;;4994616;28;20632;-48
2024/01/24 08:47:35;;;;;;;;;;;;;;;;;;4994076;28;19917;-44
2024/01/24 08:50:01;;;;;;;;;;;;;;;;;;4994215;28;20411;-48
2024/01/24 08:52:27;;;;;;;;;;;;;;;;;;4992918;28;19914;-45
2024/01/24 08:54:53;;;;;;;;;;;;;;;;;;4993405;28;19910;-43
2024/01/24 08:57:18;;;;;;;;;;;;;;;;;;4987314;28;19957;-45
2024/01/24 08:59:44;;;;;;;;;;;;;;;;;;4993833;28;19918;-48
2024/01/24 09:02:11;;;;;;;;;;;;;;;;;;4991893;28;19924;-48
2024/01/24 09:04:37;;;;;;;;;;;;;;;;;;5002279;28;19918;-45
2024/01/24 09:07:03;;;;;;;;;;;;;;;;;;4997368;28;19953;-47
2024/01/24 09:09:32;;;;;;;;;;;;;;;;;;4992993;28;20343;-45
2024/01/24 09:11:58;;;;;;;;;;;;;;;;;;4992784;28;19918;-47
2024/01/24 09:14:24;;;;;;;;;;;;;;;;;;4998355;28;19918;-46
2024/01/24 09:16:50;;;;;;;;;;;;;;;;;;4986495;28;20278;-44
2024/01/24 09:19:16;;;;;;;;;;;;;;;;;;4990568;28;20000;-44
2024/01/24 09:21:42;;;;;;;;;;;;;;;;;;4988242;28;19961;-46
2024/01/24 09:24:08;;;;;;;;;;;;;;;;;;4988053;28;19913;-46
2024/01/24 09:26:34;;;;;;;;;;;;;;;;;;4993157;28;20458;-47
2024/01/24 09:29:00;;;;;;;;;;;;;;;;;;4993943;28;20004;-44
2024/01/24 09:31:26;;;;;;;;;;;;;;;;;;4994334;28;19918;-45
2024/01/24 09:33:51;;;;;;;;;;;;;;;;;;4992637;28;19914;-45
2024/01/24 09:36:17;;;;;;;;;;;;;;;;;;4993938;28;19917;-45
2024/01/24 09:38:44;;;;;;;;;;;;;;;;;;4993392;28;20392;-44
2024/01/24 09:41:10;;;;;;;;;;;;;;;;;;5014011;28;19909;-44
2024/01/24 09:43:36;;;;;;;;;;;;;;;;;;5013659;28;19910;-43
2024/01/24 09:46:01;;;;;;;;;;;;;;;;;;5013622;28;19917;-43
2024/01/24 09:48:28;;;;;;;;;;;;;;;;;;5011495;28;19910;-44
2024/01/24 09:50:54;;;;;;;;;;;;;;;;;;4993473;28;20020;-44
2024/01/24 09:53:20;;;;;;;;;;;;;;;;;;4993025;28;20048;-45
2024/01/24 09:55:46;;;;;;;;;;;;;;;;;;4990920;28;19937;-43
2024/01/24 09:58:12;;;;;;;;;;;;;;;;;;4986995;28;19921;-44
2024/01/24 10:00:37;;;;;;;;;;;;;;;;;;4990965;28;20459;-43
2024/01/24 10:03:03;;;;;;;;;;;;;;;;;;4992170;28;19924;-43
2024/01/24 10:05:29;;;;;;;;;;;;;;;;;;4993080;28;20027;-44
2024/01/24 10:07:55;;;;;;;;;;;;;;;;;;4991363;28;19925;-43
2024/01/24 10:10:21;;;;;;;;;;;;;;;;;;4991322;28;20387;-43
2024/01/24 10:12:47;;;;;;;;;;;;;;;;;;4990642;28;19917;-44
2024/01/24 10:15:13;;;;;;;;;;;;;;;;;;4992800;28;19914;-43
2024/01/24 10:17:39;;;;;;;;;;;;;;;;;;4990852;28;19910;-44
2024/01/24 10:20:06;;;;;;;;;;;;;;;;;;4993499;28;19997;-45
2024/01/24 10:22:32;;;;;;;;;;;;;;;;;;4990343;28;19913;-43
2024/01/24 10:24:58;;;;;;;;;;;;;;;;;;4988568;28;19914;-44
2024/01/24 10:27:24;;;;;;;;;;;;;;;;;;4988591;28;20415;-45
2024/01/24 10:29:50;;;;;;;;;;;;;;;;;;4991018;28;19924;-44
2024/01/24 10:32:16;;;;;;;;;;;;;;;;;;4988660;28;20383;-44
2024/01/24 10:34:42;;;;;;;;;;;;;;;;;;4991352;28;19920;-44
2024/01/24 10:37:08;;;;;;;;;;;;;;;;;;4988607;28;19925;-47
2024/01/24 10:39:33;;;;;;;;;;;;;;;;;;4990582;28;20039;-42
2024/01/24 10:41:59;;;;;;;;;;;;;;;;;;4989634;28;19910;-43
2024/01/24 10:44:25;;;;;;;;;;;;;;;;;;4990883;28;19997;-45
2024/01/24 10:46:51;;;;;;;;;;;;;;;;;;4988811;28;20369;-44
2024/01/24 10:49:17;;;;;;;;;;;;;;;;;;4989997;28;19917;-43
2024/01/24 10:51:43;;;;;;;;;;;;;;;;;;4989457;28;19928;-43
2024/01/24 10:54:09;;;;;;;;;;;;;;;;;;4990409;28;19922;-43
2024/01/24 10:56:35;;;;;;;;;;;;;;;;;;4988705;28;19917;-43
2024/01/24 10:59:01;;;;;;;;;;;;;;;;;;4990051;28;19976;-45
2024/01/24 11:01:27;;;;;;;;;;;;;;;;;;4989679;28;19928;-44
2024/01/24 11:03:53;;;;;;;;;;;;;;;;;;4989821;28;19914;-43
2024/01/24 11:06:20;;;;;;;;;;;;;;;;;;4989126;28;19910;-46
2024/01/24 11:08:48;;;;;;;;;;;;;;;;;;4989142;28;19996;-45
2024/01/24 11:11:14;;;;;;;;;;;;;;;;;;4989881;28;20766;-44
2024/01/24 11:13:40;;;;;;;;;;;;;;;;;;4989137;28;19914;-44
2024/01/24 11:16:06;;;;;;;;;;;;;;;;;;4989324;28;19924;-45
2024/01/24 11:18:31;;;;;;;;;;;;;;;;;;4988076;28;19969;-45
2024/01/24 11:20:57;;;;;;;;;;;;;;;;;;4990104;28;19972;-44
2024/01/24 11:23:23;;;;;;;;;;;;;;;;;;4989087;28;20393;-44
2024/01/24 11:25:50;;;;;;;;;;;;;;;;;;4989426;28;19957;-44
2024/01/24 11:28:16;;;;;;;;;;;;;;;;;;4988709;28;19921;-46
2024/01/24 11:30:41;;;;;;;;;;;;;;;;;;4989593;28;19972;-47
2024/01/24 11:33:08;;;;;;;;;;;;;;;;;;4988836;28;19916;-45
2024/01/24 11:35:34;;;;;;;;;;;;;;;;;;4989782;28;19921;-44
2024/01/24 11:38:00;;;;;;;;;;;;;;;;;;4988648;28;20372;-44
2024/01/24 11:40:26;;;;;;;;;;;;;;;;;;4988338;28;19914;-46
2024/01/24 11:42:52;;;;;;;;;;;;;;;;;;4988862;28;19914;-44
2024/01/24 11:45:19;;;;;;;;;;;;;;;;;;4990653;28;20384;-47
2024/01/24 11:47:45;;;;;;;;;;;;;;;;;;4989285;28;19936;-47
2024/01/24 11:50:11;;;;;;;;;;;;;;;;;;4987172;28;19914;-46
2024/01/24 11:52:38;;;;;;;;;;;;;;;;;;4990675;28;19968;-45
2024/01/24 11:55:04;;;;;;;;;;;;;;;;;;4984788;28;20410;-43
2024/01/24 11:57:29;;;;;;;;;;;;;;;;;;4991108;28;20048;-47
2024/01/24 11:59:55;;;;;;;;;;;;;;;;;;4988930;28;19921;-45
2024/01/24 12:02:21;;;;;;;;;;;;;;;;;;4988455;28;19924;-45
2024/01/24 12:04:47;;;;;;;;;;;;;;;;;;4989934;28;19921;-46
2024/01/24 12:07:13;;;;;;;;;;;;;;;;;;4990192;28;19917;-46
2024/01/24 12:09:40;;;;;;;;;;;;;;;;;;4989335;28;19929;-44
2024/01/24 12:12:05;;;;;;;;;;;;;;;;;;4990579;28;19933;-47
2024/01/24 12:14:32;;;;;;;;;;;;;;;;;;4986942;28;19914;-49
2024/01/24 12:16:58;;;;;;;;;;;;;;;;;;4996862;28;19914;-50
2024/01/24 12:19:24;;;;;;;;;;;;;;;;;;4991275;28;20479;-50
2024/01/24 12:21:50;;;;;;;;;;;;;;;;;;4996031;28;19959;-49
2024/01/24 12:24:15;;;;;;;;;;;;;;;;;;4990839;28;19914;-47
2024/01/24 12:26:41;;;;;;;;;;;;;;;;;;4986238;28;19933;-48
2024/01/24 12:29:07;;;;;;;;;;;;;;;;;;4990139;28;19909;-48
2024/01/24 12:31:34;;;;;;;;;;;;;;;;;;4990271;28;19921;-49
2024/01/24 12:34:00;;;;;;;;;;;;;;;;;;4990875;28;19916;-51
2024/01/24 12:36:26;;;;;;;;;;;;;;;;;;4986693;28;19913;-50
2024/01/24 12:38:54;;;;;;;;;;;;;;;;;;4989187;28;19920;-51
2024/01/24 12:41:20;;;;;;;;;;;;;;;;;;4990254;28;19921;-51
2024/01/24 12:43:46;;;;;;;;;;;;;;;;;;4988526;28;19915;-51
2024/01/24 12:46:12;;;;;;;;;;;;;;;;;;4987340;28;19914;-51
2024/01/24 12:48:38;;;;;;;;;;;;;;;;;;4987377;28;19914;-51
2024/01/24 12:51:03;;;;;;;;;;;;;;;;;;4987006;28;19925;-49
2024/01/24 12:53:29;;;;;;;;;;;;;;;;;;4988828;28;19924;-49
2024/01/24 12:55:55;;;;;;;;;;;;;;;;;;4988813;28;20352;-47
2024/01/24 12:58:21;;;;;;;;;;;;;;;;;;4992688;28;19917;-50
2024/01/24 13:00:47;;;;;;;;;;;;;;;;;;4991824;28;20013;-49
2024/01/24 13:03:13;;;;;;;;;;;;;;;;;;4992174;28;19984;-51
2024/01/24 13:05:39;;;;;;;;;;;;;;;;;;4993289;28;19910;-52
2024/01/24 13:08:05;;;;;;;;;;;;;;;;;;4993737;28;19914;-49
2024/01/24 13:10:32;;;;;;;;;;;;;;;;;;4994090;28;20376;-49
2024/01/24 13:12:58;;;;;;;;;;;;;;;;;;4993641;28;19909;-50
2024/01/24 13:15:24;;;;;;;;;;;;;;;;;;4993419;28;19914;-51
2024/01/24 13:17:50;;;;;;;;;;;;;;;;;;4993505;28;20292;-50
2024/01/24 13:20:16;;;;;;;;;;;;;;;;;;4993916;28;19909;-52
2024/01/24 13:22:41;;;;;;;;;;;;;;;;;;4993203;28;19914;-52
2024/01/24 13:25:08;;;;;;;;;;;;;;;;;;4997514;28;19992;-51
2024/01/24 13:27:34;;;;;;;;;;;;;;;;;;4993614;28;19914;-48
2024/01/24 13:29:59;;;;;;;;;;;;;;;;;;4987711;28;19960;-50
2024/01/24 13:32:26;;;;;;;;;;;;;;;;;;4990677;28;20422;-50
2024/01/24 13:34:52;;;;;;;;;;;;;;;;;;4991364;28;19917;-52
2024/01/24 13:37:18;;;;;;;;;;;;;;;;;;4991024;28;19910;-50
2024/01/24 13:39:44;;;;;;;;;;;;;;;;;;4991299;28;20557;-50
2024/01/24 13:42:11;;;;;;;;;;;;;;;;;;4991147;28;19909;-51
2024/01/24 13:44:37;;;;;;;;;;;;;;;;;;4986458;28;19913;-51
2024/01/24 13:47:03;;;;;;;;;;;;;;;;;;4985521;28;20312;-49
2024/01/24 13:49:29;;;;;;;;;;;;;;;;;;4987609;28;19965;-52
2024/01/24 13:51:55;;;;;;;;;;;;;;;;;;4988450;28;19967;-51
2024/01/24 13:54:21;;;;;;;;;;;;;;;;;;4989335;28;19913;-51
2024/01/24 13:56:47;;;;;;;;;;;;;;;;;;4991240;28;19910;-51
2024/01/24 13:59:13;;;;;;;;;;;;;;;;;;4984942;28;20417;-51
2024/01/24 14:01:39;;;;;;;;;;;;;;;;;;4990057;28;20344;-50
2024/01/24 14:04:05;;;;;;;;;;;;;;;;;;4989689;28;20488;-49
2024/01/24 14:06:31;;;;;;;;;;;;;;;;;;4988050;28;19910;-50
2024/01/24 14:08:57;;;;;;;;;;;;;;;;;;4989080;28;20299;-51
2024/01/24 14:11:22;;;;;;;;;;;;;;;;;;4987401;28;19924;-51
2024/01/24 14:13:49;;;;;;;;;;;;;;;;;;4990850;28;20301;-51
2024/01/24 14:16:15;;;;;;;;;;;;;;;;;;4987993;28;19918;-52
2024/01/24 14:18:41;;;;;;;;;;;;;;;;;;4990397;28;19916;-52
2024/01/24 14:21:07;;;;;;;;;;;;;;;;;;4986989;28;19914;-51
2024/01/24 14:23:33;;;;;;;;;;;;;;;;;;4988399;28;19913;-51
2024/01/24 14:25:59;;;;;;;;;;;;;;;;;;4984682;28;19920;-51
2024/01/24 14:28:25;;;;;;;;;;;;;;;;;;4985626;28;19914;-51
2024/01/24 14:30:51;;;;;;;;;;;;;;;;;;4988664;28;19952;-53
2024/01/24 14:33:17;;;;;;;;;;;;;;;;;;4987512;28;19956;-49
2024/01/24 14:35:43;;;;;;;;;;;;;;;;;;4989109;28;20004;-52
2024/01/24 14:38:09;;;;;;;;;;;;;;;;;;4986672;28;20004;-49
2024/01/24 14:40:35;;;;;;;;;;;;;;;;;;4990281;28;20369;-52
2024/01/24 14:43:03;;;;;;;;;;;;;;;;;;4988759;28;20042;-49
2024/01/24 14:45:29;;;;;;;;;;;;;;;;;;4989584;28;19909;-49
2024/01/24 14:47:55;;;;;;;;;;;;;;;;;;4989821;28;19909;-51
2024/01/24 14:50:21;;;;;;;;;;;;;;;;;;4989492;28;20000;-51
2024/01/24 14:52:47;;;;;;;;;;;;;;;;;;4990068;28;19917;-51
2024/01/24 14:55:13;;;;;;;;;;;;;;;;;;4989788;28;19910;-50
2024/01/24 14:57:39;;;;;;;;;;;;;;;;;;4989526;28;20004;-48
2024/01/24 15:00:09;;;;;;;;;;;;;;;;;;4989974;28;19918;-52
2024/01/24 15:02:35;;;;;;;;;;;;;;;;;;4989814;28;19924;-49
2024/01/24 15:05:01;;;;;;;;;;;;;;;;;;4989644;28;19910;-53
2024/01/24 15:07:28;;;;;;;;;;;;;;;;;;4989356;28;19913;-50
2024/01/24 15:09:54;;;;;;;;;;;;;;;;;;4988411;28;19914;-51
2024/01/24 15:12:21;;;;;;;;;;;;;;;;;;4989155;28;19967;-48
2024/01/24 15:14:47;;;;;;;;;;;;;;;;;;4986918;28;19921;-47
2024/01/24 15:17:13;;;;;;;;;;;;;;;;;;4987709;28;19909;-48
2024/01/24 15:19:45;;;;;;;;;;;;;;;;;;5005125;28;19960;-50
2024/01/24 15:22:11;;;;;;;;;;;;;;;;;;5007323;28;19909;-52
2024/01/24 15:24:37;;;;;;;;;;;;;;;;;;5003945;28;19916;-50
2024/01/24 15:27:03;;;;;;;;;;;;;;;;;;4985993;28;19917;-52
2024/01/24 15:29:29;;;;;;;;;;;;;;;;;;4987068;28;19909;-50
2024/01/24 15:31:55;;;;;;;;;;;;;;;;;;4987897;28;19920;-50
2024/01/24 15:34:21;;;;;;;;;;;;;;;;;;4986848;28;20332;-52
2024/01/24 15:36:48;;;;;;;;;;;;;;;;;;4985251;28;19961;-51
2024/01/24 15:39:14;;;;;;;;;;;;;;;;;;4986862;28;20423;-51
2024/01/24 15:41:43;;;;;;;;;;;;;;;;;;4987352;28;19917;-53
2024/01/24 15:44:09;;;;;;;;;;;;;;;;;;4985526;28;19964;-48
2024/01/24 15:46:35;;;;;;;;;;;;;;;;;;4985956;28;19910;-50
2024/01/24 15:49:01;;;;;;;;;;;;;;;;;;4987080;28;19964;-51
2024/01/24 15:51:27;;;;;;;;;;;;;;;;;;4987054;28;19929;-50
2024/01/24 15:53:52;;;;;;;;;;;;;;;;;;4987629;28;19972;-48
2024/01/24 15:56:18;;;;;;;;;;;;;;;;;;4986909;28;19955;-49
2024/01/24 15:58:44;;;;;;;;;;;;;;;;;;4987259;28;20344;-50
2024/01/24 16:01:11;;;;;;;;;;;;;;;;;;4986437;28;19953;-51
2024/01/24 16:03:37;;;;;;;;;;;;;;;;;;4985053;28;19959;-50
2024/01/24 16:06:02;;;;;;;;;;;;;;;;;;4982089;28;20001;-49
2024/01/24 16:08:28;;;;;;;;;;;;;;;;;;4994583;28;19913;-51
2024/01/24 16:10:54;;;;;;;;;;;;;;;;;;5004855;28;19920;-52
2024/01/24 16:13:21;;;;;;;;;;;;;;;;;;4970889;28;19918;-49
2024/01/24 16:15:47;;;;;;;;;;;;;;;;;;4987920;28;19917;-48
2024/01/24 16:18:13;;;;;;;;;;;;;;;;;;4987594;28;19973;-52
2024/01/24 16:20:39;;;;;;;;;;;;;;;;;;4991956;28;19961;-51
2024/01/24 16:23:05;;;;;;;;;;;;;;;;;;4982774;28;19914;-51
2024/01/24 16:25:31;;;;;;;;;;;;;;;;;;4980016;28;19929;-51
2024/01/24 16:27:57;;;;;;;;;;;;;;;;;;4986957;28;19917;-48
2024/01/24 16:30:24;;;;;;;;;;;;;;;;;;4989082;28;20582;-47
2024/01/24 16:32:52;;;;;;;;;;;;;;;;;;4990824;28;19918;-48
2024/01/24 16:35:19;;;;;;;;;;;;;;;;;;4990845;28;19945;-47
2024/01/24 16:37:44;;;;;;;;;;;;;;;;;;4992512;28;20008;-45
2024/01/24 16:40:10;;;;;;;;;;;;;;;;;;4990463;28;20001;-50
2024/01/24 16:42:36;;;;;;;;;;;;;;;;;;4988181;28;19913;-52
2024/01/24 16:45:03;;;;;;;;;;;;;;;;;;5008498;28;19933;-49
2024/01/24 16:47:29;;;;;;;;;;;;;;;;;;5011818;28;20373;-51
2024/01/24 16:49:55;;;;;;;;;;;;;;;;;;5003265;28;19933;-51
2024/01/24 16:52:21;;;;;;;;;;;;;;;;;;4992135;28;19936;-51
2024/01/24 16:54:47;;;;;;;;;;;;;;;;;;4990120;28;20739;-51
2024/01/24 16:57:13;;;;;;;;;;;;;;;;;;4992645;28;20124;-51
2024/01/24 16:59:39;;;;;;;;;;;;;;;;;;5002717;28;20623;-49
2024/01/24 17:02:05;;;;;;;;;;;;;;;;;;4990652;28;19917;-51
2024/01/24 17:04:32;;;;;;;;;;;;;;;;;;4992045;28;19910;-52
2024/01/24 17:06:58;;;;;;;;;;;;;;;;;;4992374;28;20365;-48
2024/01/24 17:09:24;;;;;;;;;;;;;;;;;;4991089;28;19964;-51
2024/01/24 17:11:50;;;;;;;;;;;;;;;;;;4985091;28;19957;-52
2024/01/24 17:14:16;;;;;;;;;;;;;;;;;;4984430;28;19918;-49
2024/01/24 17:16:42;;;;;;;;;;;;;;;;;;5000646;28;19918;-48
2024/01/24 17:19:08;;;;;;;;;;;;;;;;;;4998583;28;19921;-53
2024/01/24 17:21:34;;;;;;;;;;;;;;;;;;4986960;28;19961;-52
2024/01/24 17:24:01;;;;;;;;;;;;;;;;;;4991630;28;20013;-51
2024/01/24 17:26:27;;;;;;;;;;;;;;;;;;4985834;28;19918;-53
2024/01/24 17:28:52;;;;;;;;;;;;;;;;;;4974904;28;19965;-48
2024/01/24 17:31:18;;;;;;;;;;;;;;;;;;4995884;28;19979;-52
2024/01/24 17:33:44;;;;;;;;;;;;;;;;;;4987593;28;19918;-51
2024/01/24 17:36:10;;;;;;;;;;;;;;;;;;5001932;28;19956;-50
2024/01/24 17:38:36;;;;;;;;;;;;;;;;;;4996505;28;19914;-52
2024/01/24 17:41:02;;;;;;;;;;;;;;;;;;4991837;28;20392;-52
2024/01/24 17:43:28;;;;;;;;;;;;;;;;;;4987001;28;19929;-51
2024/01/24 17:45:54;;;;;;;;;;;;;;;;;;4971551;28;19937;-49
2024/01/24 17:48:20;;;;;;;;;;;;;;;;;;4975220;28;20008;-52
2024/01/24 17:50:46;;;;;;;;;;;;;;;;;;4988125;28;20327;-52
2024/01/24 17:53:13;;;;;;;;;;;;;;;;;;4990280;28;19910;-47
2024/01/24 17:55:38;;;;;;;;;;;;;;;;;;4989412;28;19909;-50
2024/01/24 17:58:04;;;;;;;;;;;;;;;;;;4988062;28;20306;-52
2024/01/24 18:00:30;;;;;;;;;;;;;;;;;;4991394;28;19925;-50
2024/01/24 18:02:56;;;;;;;;;;;;;;;;;;4999648;28;20446;-52
2024/01/24 18:05:22;;;;;;;;;;;;;;;;;;4990793;28;19918;-52
2024/01/24 18:07:48;;;;;;;;;;;;;;;;;;4988899;28;19909;-51
2024/01/24 18:10:14;;;;;;;;;;;;;;;;;;4988850;28;19914;-52
2024/01/24 18:12:40;;;;;;;;;;;;;;;;;;4988724;28;20375;-52
2024/01/24 18:15:08;;;;;;;;;;;;;;;;;;4987668;28;21488;-52
2024/01/24 18:17:35;;;;;;;;;;;;;;;;;;4989314;28;19914;-50
2024/01/24 18:20:01;;;;;;;;;;;;;;;;;;4986895;28;19918;-52
2024/01/24 18:22:27;;;;;;;;;;;;;;;;;;4999640;28;19917;-48
2024/01/24 18:24:53;;;;;;;;;;;;;;;;;;5008280;28;20036;-52
2024/01/24 18:27:19;;;;;;;;;;;;;;;;;;4997225;28;20348;-49
2024/01/24 18:29:45;;;;;;;;;;;;;;;;;;4987216;28;19916;-51
2024/01/24 18:32:12;;;;;;;;;;;;;;;;;;4986688;28;19914;-50
2024/01/24 18:34:38;;;;;;;;;;;;;;;;;;4987576;28;20008;-50
2024/01/24 18:37:04;;;;;;;;;;;;;;;;;;4977562;28;20037;-48
2024/01/24 18:39:30;;;;;;;;;;;;;;;;;;4986210;28;19969;-51
2024/01/24 18:41:56;;;;;;;;;;;;;;;;;;4988078;28;20292;-49
2024/01/24 18:44:22;;;;;;;;;;;;;;;;;;4998620;28;20160;-50
2024/01/24 18:46:47;;;;;;;;;;;;;;;;;;4993294;28;19953;-50
2024/01/24 18:49:13;;;;;;;;;;;;;;;;;;4986940;28;20206;-51
2024/01/24 18:51:39;;;;;;;;;;;;;;;;;;4996977;28;20312;-49
2024/01/24 18:54:05;;;;;;;;;;;;;;;;;;5000455;28;19910;-49
2024/01/24 18:56:32;;;;;;;;;;;;;;;;;;4990588;28;19941;-49
2024/01/24 18:58:58;;;;;;;;;;;;;;;;;;4986611;28;20037;-50
2024/01/24 19:01:24;;;;;;;;;;;;;;;;;;4985167;28;20008;-48
2024/01/24 19:03:54;;;;;;;;;;;;;;;;;;4980049;28;19914;-52
2024/01/24 19:06:20;;;;;;;;;;;;;;;;;;4974443;28;19914;-52
2024/01/24 19:08:46;;;;;;;;;;;;;;;;;;4983092;28;19914;-51
2024/01/24 19:11:13;;;;;;;;;;;;;;;;;;4997801;28;19929;-51
2024/01/24 19:13:39;;;;;;;;;;;;;;;;;;4969344;28;19914;-51
2024/01/24 19:16:04;;;;;;;;;;;;;;;;;;4979209;28;19925;-50
2024/01/24 19:18:30;;;;;;;;;;;;;;;;;;4978015;28;20012;-49
2024/01/24 19:20:56;;;;;;;;;;;;;;;;;;4978465;28;20372;-49
2024/01/24 19:23:22;;;;;;;;;;;;;;;;;;4972273;28;19922;-49
2024/01/24 19:25:49;;;;;;;;;;;;;;;;;;4981961;28;19914;-50
2024/01/24 19:28:15;;;;;;;;;;;;;;;;;;4977256;28;20084;-51
2024/01/24 19:30:41;;;;;;;;;;;;;;;;;;4986272;28;19953;-50
2024/01/24 19:33:07;;;;;;;;;;;;;;;;;;4982582;28;19918;-49
2024/01/24 19:35:33;;;;;;;;;;;;;;;;;;4975659;28;19914;-50
2024/01/24 19:37:59;;;;;;;;;;;;;;;;;;4971770;28;19921;-52
2024/01/24 19:40:24;;;;;;;;;;;;;;;;;;4983503;28;19988;-50
2024/01/24 19:42:53;;;;;;;;;;;;;;;;;;4986308;28;19948;-47
2024/01/24 19:45:19;;;;;;;;;;;;;;;;;;4983499;28;20080;-50
2024/01/24 19:47:47;;;;;;;;;;;;;;;;;;4994343;28;19940;-51
2024/01/24 19:50:13;;;;;;;;;;;;;;;;;;4987833;28;19920;-49
2024/01/24 19:52:39;;;;;;;;;;;;;;;;;;4987150;28;19914;-51
2024/01/24 19:55:05;;;;;;;;;;;;;;;;;;4975859;28;19914;-51
2024/01/24 19:57:31;;;;;;;;;;;;;;;;;;4986933;28;19913;-50
2024/01/24 19:59:57;;;;;;;;;;;;;;;;;;4996179;28;19913;-52
2024/01/24 20:02:23;;;;;;;;;;;;;;;;;;4979027;28;19965;-49
2024/01/24 20:04:49;;;;;;;;;;;;;;;;;;4989272;28;19909;-51
2024/01/24 20:07:16;;;;;;;;;;;;;;;;;;4984754;28;19925;-49
2024/01/24 20:09:42;;;;;;;;;;;;;;;;;;4989345;28;19914;-49
2024/01/24 20:12:08;;;;;;;;;;;;;;;;;;4999459;28;19924;-52
2024/01/24 20:14:35;;;;;;;;;;;;;;;;;;4979974;28;20085;-50
2024/01/24 20:17:01;;;;;;;;;;;;;;;;;;5000850;28;19969;-51
2024/01/24 20:19:26;;;;;;;;;;;;;;;;;;4990397;28;19918;-52
2024/01/24 20:21:52;;;;;;;;;;;;;;;;;;4971607;28;20001;-51
2024/01/24 20:24:19;;;;;;;;;;;;;;;;;;4986166;28;19976;-47
2024/01/24 20:26:45;;;;;;;;;;;;;;;;;;4989741;28;19914;-48
2024/01/24 20:29:12;;;;;;;;;;;;;;;;;;4987418;28;19924;-50
2024/01/24 20:31:37;;;;;;;;;;;;;;;;;;4988592;28;20372;-52
2024/01/24 20:34:03;;;;;;;;;;;;;;;;;;4976540;28;19945;-48
2024/01/24 20:36:29;;;;;;;;;;;;;;;;;;4986110;28;19917;-50
2024/01/24 20:38:55;;;;;;;;;;;;;;;;;;4988553;28;19953;-52
2024/01/24 20:41:21;;;;;;;;;;;;;;;;;;4986527;28;20134;-51
2024/01/24 20:43:47;;;;;;;;;;;;;;;;;;4983556;28;20389;-49
2024/01/24 20:46:13;;;;;;;;;;;;;;;;;;4978386;28;20311;-50
2024/01/24 20:48:40;;;;;;;;;;;;;;;;;;4986239;28;19913;-49
2024/01/24 20:51:06;;;;;;;;;;;;;;;;;;4998067;28;19941;-48
2024/01/24 20:53:32;;;;;;;;;;;;;;;;;;4987873;28;19914;-50
2024/01/24 20:55:58;;;;;;;;;;;;;;;;;;4990411;28;19921;-50
2024/01/24 20:58:23;;;;;;;;;;;;;;;;;;4989688;28;20647;-50
2024/01/24 21:00:49;;;;;;;;;;;;;;;;;;4989167;28;20040;-51
2024/01/24 21:03:17;;;;;;;;;;;;;;;;;;4988784;28;20158;-48
2024/01/24 21:05:43;;;;;;;;;;;;;;;;;;4989394;28;20020;-51
2024/01/24 21:08:09;;;;;;;;;;;;;;;;;;4989955;28;19918;-51
2024/01/24 21:10:35;;;;;;;;;;;;;;;;;;4986633;28;19920;-51
2024/01/24 21:13:02;;;;;;;;;;;;;;;;;;4982937;28;20356;-51
2024/01/24 21:15:28;;;;;;;;;;;;;;;;;;4984013;28;19953;-48
2024/01/24 21:17:54;;;;;;;;;;;;;;;;;;4988867;28;19922;-48
2024/01/24 21:20:20;;;;;;;;;;;;;;;;;;4980399;28;19924;-49
2024/01/24 21:22:48;;;;;;;;;;;;;;;;;;5002008;28;19967;-48
2024/01/24 21:25:13;;;;;;;;;;;;;;;;;;4979470;28;20352;-51
2024/01/24 21:27:39;;;;;;;;;;;;;;;;;;4969946;28;19930;-51
2024/01/24 21:30:05;;;;;;;;;;;;;;;;;;4974030;28;19925;-48
2024/01/24 21:32:32;;;;;;;;;;;;;;;;;;4976149;28;20292;-51
2024/01/24 21:34:57;;;;;;;;;;;;;;;;;;4985704;28;19914;-51
2024/01/24 21:37:23;;;;;;;;;;;;;;;;;;4994138;28;19918;-52
2024/01/24 21:39:49;;;;;;;;;;;;;;;;;;4985240;28;19918;-51
2024/01/24 21:42:15;;;;;;;;;;;;;;;;;;4986116;28;19964;-51
2024/01/24 21:44:41;;;;;;;;;;;;;;;;;;4987184;28;19976;-52
2024/01/24 21:47:07;;;;;;;;;;;;;;;;;;4969643;28;19921;-48
2024/01/24 21:49:35;;;;;;;;;;;;;;;;;;4970142;28;20297;-50
2024/01/24 21:52:01;;;;;;;;;;;;;;;;;;4987073;28;19918;-50
2024/01/24 21:54:27;;;;;;;;;;;;;;;;;;4987408;28;20060;-47
2024/01/24 21:56:53;;;;;;;;;;;;;;;;;;4980921;28;19913;-50
2024/01/24 21:59:18;;;;;;;;;;;;;;;;;;4983648;28;19914;-51
2024/01/24 22:01:44;;;;;;;;;;;;;;;;;;4988735;28;20142;-51
2024/01/24 22:04:10;;;;;;;;;;;;;;;;;;4998583;28;19940;-49
2024/01/24 22:06:36;;;;;;;;;;;;;;;;;;5008633;28;19973;-51
2024/01/24 22:09:03;;;;;;;;;;;;;;;;;;5008414;28;20337;-49
2024/01/24 22:11:29;;;;;;;;;;;;;;;;;;5008230;28;19914;-50
2024/01/24 22:13:54;;;;;;;;;;;;;;;;;;5008272;28;19933;-49
2024/01/24 22:16:20;;;;;;;;;;;;;;;;;;5008787;28;19913;-52
2024/01/24 22:18:46;;;;;;;;;;;;;;;;;;4996737;28;19914;-50
2024/01/24 22:21:12;;;;;;;;;;;;;;;;;;4988756;28;20013;-51
2024/01/24 22:23:38;;;;;;;;;;;;;;;;;;4988771;28;19956;-51
2024/01/24 22:26:04;;;;;;;;;;;;;;;;;;4988952;28;19917;-48
2024/01/24 22:28:30;;;;;;;;;;;;;;;;;;4987122;28;19916;-48
2024/01/24 22:30:56;;;;;;;;;;;;;;;;;;4988511;28;19910;-49
2024/01/24 22:33:22;;;;;;;;;;;;;;;;;;4996306;28;19913;-50
2024/01/24 22:35:48;;;;;;;;;;;;;;;;;;5004714;28;19913;-52
2024/01/24 22:38:14;;;;;;;;;;;;;;;;;;5007855;28;19963;-51